createdAt,value
2022-10-08T00:01:18.717Z,18.2988879509111
2022-10-08T00:04:17.357Z,18.2314429220718
2022-10-08T00:07:17.420Z,18.19611459364105
2022-10-08T00:11:20.550Z,18.197399259888424
2022-10-08T00:14:17.371Z,18.14665495694826
2022-10-08T00:17:17.204Z,18.218596255596275
2022-10-08T00:21:19.973Z,18.152435952053292
2022-10-08T00:24:18.312Z,18.096553014800882
2022-10-08T00:27:17.494Z,18.117749986948276
2022-10-08T00:31:19.090Z,18.117749986948276
2022-10-08T00:34:20.045Z,18.056086081725606
2022-10-08T00:37:22.552Z,18.044524104162065
2022-10-08T00:41:19.995Z,18.000203203817726
2022-10-08T00:44:53.241Z,17.946889685712176
2022-10-08T00:47:23.005Z,17.937897047191747
2022-10-08T00:51:17.500Z,17.955882325123913
2022-10-08T00:54:20.148Z,17.829343123943545
2022-10-08T00:57:17.625Z,17.870452286698857
2022-10-08T01:01:17.159Z,17.83255477661305
2022-10-08T01:04:16.931Z,17.860817325006884
2022-10-08T01:07:23.839Z,17.76382543430118
2022-10-08T01:11:32.699Z,17.732993596722736
2022-10-08T01:14:32.556Z,17.786949319360794
2022-10-08T01:17:25.609Z,17.73748990571703
2022-10-08T01:21:22.162Z,17.698307791970727
2022-10-08T01:24:27.707Z,17.69509614405333
2022-10-08T01:27:22.175Z,17.696380803206647
2022-10-08T01:31:24.421Z,17.64627910970603
2022-10-08T01:34:25.178Z,17.690599837159972
2022-10-08T01:37:24.034Z,17.63664417182008
2022-10-08T01:41:18.357Z,17.57754990850226
2022-10-08T01:44:22.278Z,17.618016628141866
2022-10-08T01:47:20.991Z,17.571126621330404
2022-10-08T01:51:20.603Z,17.554426076811797
2022-10-08T01:54:18.947Z,17.625082247707542
2022-10-08T01:57:17.197Z,17.558280048350934
2022-10-08T02:01:23.151Z,17.473492712306687
2022-10-08T02:04:52.844Z,17.501112820649816
2022-10-08T02:07:21.525Z,17.429814418600653
2022-10-08T02:11:16.020Z,17.439449334522305
2022-10-08T02:14:18.699Z,17.418894848459693
2022-10-08T02:17:24.329Z,17.334749969691984
2022-10-08T02:21:21.916Z,17.34374254843133
2022-10-08T02:24:20.647Z,17.30006431718939
2022-10-08T02:27:25.026Z,17.309699219332195
2022-10-08T02:31:20.368Z,17.210138613196612
2022-10-08T02:34:22.076Z,17.212065591633383
2022-10-08T02:37:22.236Z,17.204357678131874
2022-10-08T02:41:18.217Z,17.151044627674857
2022-10-08T02:44:22.992Z,17.091308355343152
2022-10-08T02:47:20.485Z,17.068826972716487
2022-10-08T02:51:18.413Z,17.09773160854538
2022-10-08T02:54:20.733Z,17.037353046397858
2022-10-08T02:57:21.671Z,16.995601936497042
2022-10-08T03:01:22.268Z,16.96477035997996
2022-10-08T03:04:23.359Z,16.939719711774615
2022-10-08T03:07:18.249Z,16.944215981456
2022-10-08T03:11:17.286Z,16.928800200618934
2022-10-08T03:14:20.130Z,16.887049140672115
2022-10-08T03:17:24.279Z,16.87034872207305
2022-10-08T03:21:16.643Z,16.882552873823805
2022-10-08T03:24:16.788Z,16.828597689024537
2022-10-08T03:27:16.928Z,16.782992736419054
2022-10-08T03:31:16.507Z,16.698848447413184
2022-10-08T03:34:17.054Z,16.640397117014892
2022-10-08T03:37:17.251Z,16.624981387800744
2022-10-08T03:41:17.769Z,16.592222971917728
2022-10-08T03:44:18.353Z,16.624339065807
2022-10-08T03:47:16.837Z,16.544691173825413
2022-10-08T03:51:18.908Z,16.50550957520327
2022-10-08T03:54:17.340Z,16.479174411867643
2022-10-08T03:57:17.286Z,16.434211955546925
2022-10-08T04:01:17.811Z,16.474678165232852
2022-10-08T04:04:19.646Z,16.41943858190507
2022-10-08T04:07:17.059Z,16.397599686145348
2022-10-08T04:11:17.650Z,16.328871430852452
2022-10-08T04:14:17.724Z,16.35263727025167
2022-10-08T04:17:16.466Z,16.362272071781625
2022-10-08T04:21:18.438Z,16.28712064698275
2022-10-08T04:24:17.320Z,16.30767487664061
2022-10-08T04:27:17.137Z,16.33593695002355
2022-10-08T04:31:22.277Z,16.30960183590978
2022-10-08T04:34:16.982Z,16.331440710487367
2022-10-08T04:37:16.460Z,16.362272071781625
2022-10-08T04:41:18.109Z,16.321805912231593
2022-10-08T04:44:17.614Z,16.298682400592316
2022-10-08T04:47:17.291Z,16.30253631878959
2022-10-08T04:51:17.260Z,16.281982090295877
2022-10-08T04:54:16.653Z,16.298682400592316
2022-10-08T04:57:16.720Z,16.252435394994336
2022-10-08T05:01:18.864Z,16.194626671147944
2022-10-08T05:04:17.018Z,16.23380813551048
2022-10-08T05:07:16.984Z,16.192057395387472
2022-10-08T05:11:17.090Z,16.272347297292434
2022-10-08T05:14:17.054Z,16.272347297292434
2022-10-08T05:17:16.650Z,16.26977801933099
2022-10-08T05:21:18.220Z,16.19269971432077
2022-10-08T05:24:17.134Z,16.240231328003937
2022-10-08T05:27:16.794Z,16.17471478590742
2022-10-08T05:31:16.850Z,16.175999423532993
2022-10-08T05:34:17.079Z,16.166364641784547
2022-10-08T05:37:16.920Z,16.155445223706558
2022-10-08T05:41:19.010Z,16.156087542380646
2022-10-08T05:44:17.521Z,16.1214023404872
2022-10-08T05:47:16.977Z,16.14067189545758
2022-10-08T05:51:16.893Z,16.136175665598422
2022-10-08T05:54:17.982Z,16.08992874283722
2022-10-08T05:57:16.305Z,16.08350556098485
2022-10-08T06:01:19.634Z,16.122044658920277
2022-10-08T06:04:17.468Z,16.119475385215264
2022-10-08T06:07:16.507Z,16.108555972780685
2022-10-08T06:11:16.473Z,16.105986699457663
2022-10-08T06:14:23.086Z,16.099563516468425
2022-10-08T06:17:16.877Z,16.0873594700417
2022-10-08T06:21:19.814Z,16.120760022058676
2022-10-08T06:24:18.017Z,16.105986699457663
2022-10-08T06:27:17.120Z,16.15030667447754
2022-10-08T06:31:17.560Z,16.156729861059283
2022-10-08T06:34:16.422Z,16.193342033258613
2022-10-08T06:37:16.812Z,16.18370724966844
2022-10-08T06:41:17.323Z,16.24858147892528
2022-10-08T06:44:19.472Z,16.260143227623576
2022-10-08T06:47:18.076Z,16.315382713962844
2022-10-08T06:51:17.681Z,16.402738249380583
2022-10-08T06:54:16.747Z,16.47210888154159
2022-10-08T06:57:16.825Z,16.49009386890839
2022-10-08T07:01:19.057Z,16.60314244256451
2022-10-08T07:04:16.782Z,16.668659294043845
2022-10-08T07:07:16.798Z,16.738030129531488
2022-10-08T07:11:17.613Z,16.851079012124774
2022-10-08T07:14:17.998Z,16.914669070485978
2022-10-08T07:17:16.519Z,16.996244261119227
2022-10-08T07:21:17.102Z,17.09259300594722
2022-10-08T07:24:16.578Z,17.180591615624508
2022-10-08T07:27:18.327Z,17.244824231320308
2022-10-08T07:31:24.615Z,17.370720289997188
2022-10-08T07:34:17.526Z,17.454222874256082
2022-10-08T07:37:17.678Z,17.541579506197014
2022-10-08T07:41:16.318Z,17.67903790617165
2022-10-08T07:44:17.822Z,17.7426285448405
2022-10-08T07:47:16.847Z,17.819708166617147
2022-10-08T07:51:17.995Z,17.939824041085377
2022-10-08T07:54:18.263Z,18.002130199034674
2022-10-08T07:57:16.683Z,18.06957505741193
2022-10-08T08:01:18.491Z,18.196756926762465
2022-10-08T08:04:16.266Z,18.2597055947208
2022-10-08T08:07:17.015Z,18.350917007414683
2022-10-08T08:11:18.821Z,18.458186884745466
2022-10-08T08:14:16.940Z,18.559033531788735
2022-10-08T08:17:17.080Z,18.66758832807909
2022-10-08T08:21:18.436Z,18.80633310887142
2022-10-08T08:24:17.949Z,18.903968452168282
2022-10-08T08:27:18.163Z,19.026012779036773
2022-10-08T08:31:18.672Z,19.185312989510656
2022-10-08T08:34:19.784Z,19.28680278558759
2022-10-08T08:37:17.118Z,19.40884762741198
2022-10-08T08:41:32.267Z,19.568790852873644
2022-10-08T08:44:55.384Z,19.66000358158817
2022-10-08T08:47:22.110Z,19.744150616858768
2022-10-08T08:51:16.461Z,19.91180257624983
2022-10-08T08:54:16.771Z,20.047979874714294
2022-10-08T08:57:30.934Z,20.163602269694458
2022-10-08T09:01:27.597Z,20.308130470613925
2022-10-08T09:04:24.360Z,20.41283326663579
2022-10-08T09:07:21.600Z,20.54579956824464
2022-10-08T09:11:19.815Z,20.631874476080792
2022-10-08T09:14:30.167Z,20.76291404478916
2022-10-08T09:17:19.465Z,20.86247854949652
2022-10-08T09:21:17.456Z,21.053899646132777
2022-10-08T09:24:18.721Z,21.159245656826535
2022-10-08T09:27:16.553Z,21.32433080983983
2022-10-08T09:31:23.229Z,21.412975879757234
2022-10-08T09:34:18.937Z,21.588981565111407
2022-10-08T09:37:22.529Z,21.761775800004035
2022-10-08T09:41:18.677Z,21.956410592489647
2022-10-08T09:44:19.414Z,22.09901456683956
2022-10-08T09:47:18.680Z,22.108007617779457
2022-10-08T09:51:17.321Z,22.3418272550648
2022-10-08T09:54:22.517Z,22.463233842837873
2022-10-08T09:57:20.557Z,22.594918420632986
2022-10-08T10:01:20.451Z,22.98547673137664
2022-10-08T10:04:25.688Z,23.216086786429877
2022-10-08T10:07:18.760Z,23.30537607377346
2022-10-08T10:11:23.654Z,23.51093447932226
2022-10-08T10:14:23.110Z,23.586091887604926
2022-10-08T10:17:24.679Z,23.79100855634251
2022-10-08T10:21:22.389Z,23.905993347441836
2022-10-08T10:24:33.018Z,24.05759362990502
2022-10-08T10:27:23.826Z,24.21176366843283
2022-10-08T10:31:28.416Z,24.395483306397
2022-10-08T10:34:20.847Z,24.511111241291292
2022-10-08T10:37:26.390Z,24.726308067954324
2022-10-08T10:41:23.106Z,24.828446441888808
2022-10-08T10:44:21.900Z,25.007670658912048
2022-10-08T10:47:19.999Z,25.083471688756344
2022-10-08T10:51:39.600Z,25.168908518637544
2022-10-08T10:54:39.714Z,25.20680909298835
2022-10-08T10:57:28.813Z,25.281967905894636
2022-10-08T11:01:30.307Z,25.34299433823553
2022-10-08T11:04:24.120Z,25.42778902814471
2022-10-08T11:07:38.076Z,25.46055063410313
2022-10-08T11:11:24.454Z,25.524789111492282
2022-10-08T11:14:34.832Z,25.727140612502353
2022-10-08T11:17:31.371Z,25.71172333940276
2022-10-08T11:21:30.278Z,25.892876463750962
2022-10-08T11:24:36.507Z,25.950691366795308
2022-10-08T11:27:26.335Z,26.207646937089248
2022-10-08T11:31:26.553Z,26.34319129355172
2022-10-08T11:34:22.649Z,26.399721701097224
2022-10-08T11:37:24.704Z,26.375310838973384
2022-10-08T11:41:26.656Z,26.28409135967995
2022-10-08T11:44:20.974Z,26.201865428756356
2022-10-08T11:47:53.301Z,26.404860830802136
2022-10-08T11:51:50.126Z,26.583445768828096
2022-10-08T11:54:25.572Z,26.581518591362055
2022-10-08T11:57:20.745Z,26.52884242313821
2022-10-08T12:01:16.441Z,26.785157236596934
2022-10-08T12:04:21.229Z,26.82819763967209
2022-10-08T12:07:22.718Z,26.745328822085867
2022-10-08T12:12:12.563Z,26.72926898247033
2022-10-08T12:14:50.269Z,26.789653994172205
2022-10-08T12:17:16.690Z,26.768454996125364
2022-10-08T12:21:45.575Z,27.142971357359876
2022-10-08T12:31:22.879Z,27.621557979322098
2022-10-08T12:34:18.763Z,27.649823576869675
2022-10-08T12:37:42.665Z,27.743614031805556
2022-10-08T12:41:22.462Z,27.864385445317385
2022-10-08T12:44:29.256Z,27.892008716737564
2022-10-08T12:47:28.715Z,27.867597453190047
2022-10-08T12:51:24.792Z,27.926698418337857
2022-10-08T12:54:31.801Z,27.990296239045346
2022-10-08T12:57:23.268Z,27.934407242716496
2022-10-08T13:01:19.469Z,27.98579942197548
2022-10-08T13:04:20.478Z,28.05325170142023
2022-10-08T13:07:24.657Z,28.133552099462484
2022-10-08T13:11:16.925Z,27.98644182440039
2022-10-08T13:14:28.667Z,27.830338168856635
2022-10-08T13:17:27.439Z,27.843186196209082
2022-10-08T13:21:26.786Z,27.983872214728034
2022-10-08T13:24:38.225Z,28.0455428669462
2022-10-08T13:27:26.521Z,28.14511536263317
2022-10-08T13:31:24.336Z,28.169526700832012
2022-10-08T13:34:16.860Z,27.990296239045346
2022-10-08T13:37:27.845Z,27.830980570181055
2022-10-08T13:41:23.897Z,27.77701887478215
2022-10-08T13:44:17.264Z,27.829053366221434
2022-10-08T13:47:18.782Z,27.851537414963605
2022-10-08T13:51:16.636Z,27.997362666319624
2022-10-08T13:54:22.022Z,27.989653836593153
2022-10-08T13:57:17.312Z,27.98066020273991
2022-10-08T14:01:16.860Z,28.07637820877135
2022-10-08T14:04:18.098Z,28.141260941412565
2022-10-08T14:07:22.042Z,28.156678627277234
2022-10-08T14:11:18.132Z,28.19072602617416
2022-10-08T14:14:18.251Z,28.167599489682836
2022-10-08T14:17:17.410Z,28.152181801962797
2022-10-08T14:21:17.133Z,28.202931700587307
2022-10-08T14:24:17.025Z,28.21899180100045
2022-10-08T14:27:17.049Z,28.209355740411503
2022-10-08T14:31:16.346Z,28.275523377064747
2022-10-08T14:34:16.760Z,28.23569430844509
2022-10-08T14:37:16.842Z,28.240191137897728
2022-10-08T14:41:16.952Z,28.193295641703664
2022-10-08T14:44:18.346Z,28.106571157794043
2022-10-08T14:47:16.694Z,28.08215983652999
2022-10-08T14:51:16.279Z,27.97744819086547
2022-10-08T14:54:17.768Z,27.978732995601604
2022-10-08T14:57:16.413Z,28.01406513297343
2022-10-08T15:01:19.934Z,27.883015092561344
2022-10-08T15:04:19.951Z,27.841901393391982
2022-10-08T15:07:19.099Z,27.73783242561558
2022-10-08T15:11:17.093Z,27.59521958953128
2022-10-08T15:14:17.200Z,27.49307810142782
2022-10-08T15:17:16.976Z,27.414705465233784
2022-10-08T15:21:16.917Z,27.29264985512855
2022-10-08T15:24:17.813Z,27.133977807416613
2022-10-08T15:27:20.564Z,27.0363336082607
2022-10-08T15:31:18.790Z,26.92712640472173
2022-10-08T15:34:19.827Z,26.82048890926244
2022-10-08T15:37:18.530Z,26.72798419542387
2022-10-08T15:41:17.758Z,26.61428061385086
2022-10-08T15:44:19.408Z,26.52820003103152
2022-10-08T15:47:17.055Z,26.46460323497895
2022-10-08T15:51:16.171Z,26.35089998341609
2022-10-08T15:54:18.378Z,26.28601853082955
2022-10-08T15:57:17.660Z,26.224349074342264
2022-10-08T16:01:18.109Z,26.190302413195603
2022-10-08T16:04:17.590Z,26.050261563939056
2022-10-08T16:07:17.684Z,25.881313487562238
2022-10-08T16:11:18.094Z,25.784313023113647
2022-10-08T16:14:19.338Z,25.73356447706692
2022-10-08T16:17:16.780Z,25.648769501430888
2022-10-08T16:21:16.942Z,25.5016632543935
2022-10-08T16:24:16.597Z,25.417510879693236
2022-10-08T16:27:17.875Z,25.3172989933003
2022-10-08T16:31:19.337Z,25.19267667358299
2022-10-08T16:34:19.831Z,25.123299373879945
2022-10-08T16:37:16.463Z,25.004458752266146
2022-10-08T16:41:18.441Z,24.901035419036
2022-10-08T16:44:18.714Z,24.81688360133303
2022-10-08T16:47:16.137Z,24.65564636710342
2022-10-08T16:51:16.389Z,24.581130451268926
2022-10-08T16:54:17.834Z,24.402549453746996
2022-10-08T16:57:18.336Z,24.353728810561098
2022-10-08T17:01:15.701Z,24.24067057981747
2022-10-08T17:04:17.371Z,24.218187425722498
2022-10-08T17:07:19.057Z,24.05695125529246
2022-10-08T17:11:17.407Z,23.96637648044598
2022-10-08T17:14:16.554Z,23.965091732516886
2022-10-08T17:17:16.544Z,23.95160188035961
2022-10-08T17:21:16.853Z,23.780730593282442
2022-10-08T17:24:16.641Z,23.731910284645075
2022-10-08T17:27:16.692Z,23.60407828514326
2022-10-08T17:31:18.675Z,23.498729435989297
2022-10-08T17:34:16.823Z,23.469822760959595
2022-10-08T17:37:16.989Z,23.345845348051807
2022-10-08T17:41:18.361Z,23.26554918654956
2022-10-08T17:44:18.190Z,23.295740534938886
2022-10-08T17:47:16.957Z,23.158273625659056
2022-10-08T17:51:17.851Z,23.040720312352004
2022-10-08T17:54:19.386Z,22.989330933609107
2022-10-08T17:57:16.963Z,22.875632036570458
2022-10-08T18:01:21.329Z,22.85379158678443
2022-10-08T18:04:19.126Z,22.81396489776671
2022-10-08T18:07:17.087Z,22.721464268141425
2022-10-08T18:11:16.454Z,22.620612994680506
2022-10-08T18:14:18.110Z,22.58271350050927
2022-10-08T18:17:16.724Z,22.57500513075065
2022-10-08T18:21:18.113Z,22.454883119958048
2022-10-08T18:24:18.071Z,22.415698969016375
2022-10-08T18:27:17.233Z,22.345681429957857
2022-10-08T18:31:18.737Z,22.216566660159515
2022-10-08T18:34:17.747Z,22.22555972275004
2022-10-08T18:37:17.710Z,22.147833996941426
2022-10-08T18:41:18.334Z,22.077174303981973
2022-10-08T18:44:19.675Z,22.016150067979833
2022-10-08T18:47:16.515Z,21.9474175565746
2022-10-08T18:51:19.521Z,21.898598234302426
2022-10-08T18:54:17.200Z,21.852348374273515
2022-10-08T18:57:16.427Z,21.79325136520938
2022-10-08T19:01:19.083Z,21.6673491698989
2022-10-08T19:04:20.036Z,21.679553966899768
2022-10-08T19:07:17.162Z,21.673130389326253
2022-10-08T19:11:17.861Z,21.56778378200397
2022-10-08T19:14:18.882Z,21.553009572463726
2022-10-08T19:17:16.883Z,21.530527084300775
2022-10-08T19:21:16.549Z,21.46693379080325
2022-10-08T19:24:18.423Z,21.49969396673587
2022-10-08T19:27:16.460Z,21.40783703275965
2022-10-08T19:31:19.296Z,21.354521512333303
2022-10-08T19:34:20.034Z,21.27101533848072
2022-10-08T19:37:17.315Z,21.21384577146828
2022-10-08T19:41:16.259Z,21.073170248704628
2022-10-08T19:44:17.675Z,21.013431394053715
2022-10-08T19:47:16.623Z,21.02949022208377
2022-10-08T19:51:17.566Z,21.08537496578365
2022-10-08T19:54:16.845Z,20.99544551003428
2022-10-08T19:57:17.258Z,20.953050226094728
2022-10-08T20:01:19.619Z,20.963970221579075
2022-10-08T20:04:17.928Z,20.913224371347404
2022-10-08T20:07:17.726Z,20.912582018994726
2022-10-08T20:11:18.129Z,20.868902069680917
2022-10-08T20:14:16.641Z,20.792462208979213
2022-10-08T20:17:16.529Z,20.789892803015483
2022-10-08T20:21:21.375Z,20.83293036250543
2022-10-08T20:24:20.786Z,20.756490532108092
2022-10-08T20:27:20.348Z,20.727584730670788
2022-10-08T20:31:19.482Z,20.66591905171517
2022-10-08T20:34:19.911Z,20.541945469803704
2022-10-08T20:37:17.994Z,20.561858313510676
2022-10-08T20:41:16.836Z,20.452016552657096
2022-10-08T20:44:18.245Z,20.4186144061322
2022-10-08T20:47:17.361Z,20.34538666639428
2022-10-08T20:51:18.460Z,20.322262129281533
2022-10-08T20:54:17.230Z,20.270874290131268
2022-10-08T20:57:16.615Z,20.21306300587539
2022-10-08T21:01:20.064Z,20.15460941146739
2022-10-08T21:04:19.713Z,20.111572173720287
2022-10-08T21:07:16.751Z,20.15525175845405
2022-10-08T21:11:18.928Z,20.1051487071506
2022-10-08T21:14:19.462Z,20.030636528175183
2022-10-08T21:17:17.861Z,20.00751207127987
2022-10-08T21:21:18.427Z,19.96640194024012
2022-10-08T21:24:17.706Z,19.90345208818335
2022-10-08T21:27:17.481Z,19.89895567185049
2022-10-08T21:31:18.886Z,19.776910170778866
2022-10-08T21:34:17.191Z,19.7293767042549
2022-10-08T21:37:17.195Z,19.75763984351106
2022-10-08T21:41:18.846Z,19.665142329596346
2022-10-08T21:44:17.940Z,19.615681892098017
2022-10-08T21:47:16.989Z,19.60476205888117
2022-10-08T21:51:18.368Z,19.5572286825427
2022-10-08T21:54:17.798Z,19.568148510038828
2022-10-08T21:57:17.333Z,19.57392959571589
2022-10-08T22:01:22.794Z,19.478220558047997
2022-10-08T22:04:18.992Z,19.40627826062928
2022-10-08T22:07:17.009Z,19.391504403040745
2022-10-08T22:11:17.535Z,19.40306655225322
2022-10-08T22:14:17.820Z,19.331766655581397
2022-10-08T22:17:16.977Z,19.22256872424996
2022-10-08T22:21:18.829Z,19.16732746787029
2022-10-08T22:24:17.688Z,19.135210473808637
2022-10-08T22:27:16.667Z,19.111443905522172
2022-10-08T22:31:19.877Z,19.155765348698424
2022-10-08T22:34:18.803Z,19.108874547161395
2022-10-08T22:37:18.738Z,19.07033418048086
2022-10-08T22:41:19.687Z,19.020874067226487
2022-10-08T22:44:17.289Z,18.955997855653187
2022-10-08T22:47:17.047Z,18.92773496610789
2022-10-08T22:51:19.636Z,18.874420902978546
2022-10-08T22:54:16.942Z,18.794771035701796
2022-10-08T22:57:16.873Z,18.83202661007899
2022-10-08T23:01:18.220Z,18.724113953901632
2022-10-08T23:04:16.759Z,18.672084683389404
2022-10-08T23:11:17.050Z,18.545544483333742
2022-10-08T23:14:17.452Z,18.544902147743052
2022-10-08T23:17:17.732Z,18.45690221480554
2022-10-08T23:21:17.630Z,18.313661630588832
2022-10-08T23:24:18.193Z,18.304668955715897
2022-10-08T23:27:17.571Z,18.302099620201624
2022-10-08T23:31:18.828Z,18.228231255282388
2022-10-08T23:34:17.369Z,18.17555993615688
2022-10-08T23:37:17.089Z,18.13766229862813
2022-10-08T23:41:16.889Z,18.086275696754456
2022-10-08T23:44:17.145Z,18.05480141747912
2022-10-08T23:47:17.010Z,17.97836392755271
2022-10-08T23:51:17.990Z,17.964232633947177
2022-10-08T23:54:17.460Z,17.914773123660506
2022-10-08T23:57:19.880Z,17.90192650202307
